Pagrindinis puslapis
METAR-TAF:

METAR-TAF

Oro uostai :

Igdyras, Turkija

platuma: 39-58-36N, ilguma: 43-52-36E, Aukštis: 945 m

Dabartinis oras

Ataskaita buvo paskelbta 8 valandos ir 23 minutes, ne 12:50 UTC
Ramus vėjas
Temperatūra 7°C
Drėgmė 70%
Slėgis 1020 hPa
Matomumas: 4400 m
Išsisklaidę debesys ne aukštis 3000 ft
Su prošvaistėmis ne aukštis 5000 ft
rūkana

METAR: LTCT 151250Z 00000KT 4400 BR SCT030 BKN050 07/02 Q1020

Laikas: 00:13 (21:13 UTC)

Prognozė

Ataskaita buvo paskelbta 1 valandą ir 33 minutes, ne 19:40 UTC
Prognozė galioja nuo 15 metu 21 UTC su 16 metu 06 UTC
Vėjas 2 kt nuo kintamojo kryptimis
Matomumas: 2500 m
Išsisklaidę debesys ne aukštis 2500 ft
Su prošvaistėmis ne aukštis 5000 ft
rūkana

TAF: LTCT 151940Z 1521/1606 VRB02KT 2500 BR SCT025 BKN050

Orai ataskaitas ir orų prognozės (METAR, TAF).

turimą stotys yra geltonos ir raudonos taškus žemėlapyje.

Perkelti pele per norėdami pamatyti stoties vardą.

Tada spustelėkite, norėdami matyti oro stebėjimo ir prognozės.

Norėdami pakeisti žemėlapį: spustelėkite ant žalios mygtukų su juodo kryžiaus žemyn,; žalią mygtuką su brūkšneliu, jei norite nutolinti; arba žalių rodyklių gretimoms žemėlapius.


METAR-TAF: